Time;durP1;ratioP1;P1;durP2;ratioP2;P2;SDS_P1;SDS_P2;PMS_P1;PMS_P2;Temp;Humidity;BMP_temperature;BMP_pressure;BME280_temperature;BME280_humidity;BME280_pressure;Samples;Min_cycle;Max_cycle;Signal;HPM_P1;HPM_P2
2023/07/26 14:47:42;;;;;;;5.35;2.40;;;19.70;99.90;;;;;;4583364;19;20002;-26
2023/07/26 14:49:15;;;;;;;2.50;1.33;;;19.70;99.90;;;;;;4587348;19;20463;-26
2023/07/26 14:50:47;;;;;;;2.45;1.50;;;19.70;99.90;;;;;;4589811;19;20029;-25
2023/07/26 14:52:18;;;;;;;2.53;1.40;;;19.70;99.90;;;;;;4589525;19;20041;-29
2023/07/26 14:53:50;;;;;;;10.57;4.00;;;19.70;99.90;;;;;;4590658;19;20013;-26
2023/07/26 14:55:22;;;;;;;3.08;2.00;;;19.70;99.90;;;;;;4590811;19;20022;-25
2023/07/26 14:56:54;;;;;;;2.78;1.92;;;19.70;99.90;;;;;;4590104;19;20479;-30
2023/07/26 14:58:27;;;;;;;1.30;0.90;;;19.70;99.90;;;;;;4589728;19;20466;-26
2023/07/26 14:59:59;;;;;;;;;;;19.70;99.90;;;;;;4589655;19;20037;-25
2023/07/26 15:01:30;;;;;;;1.35;1.00;;;19.70;99.90;;;;;;4588461;19;19915;-26
2023/07/26 15:03:01;;;;;;;;;;;19.70;99.90;;;;;;4590268;19;20014;-25
2023/07/26 15:04:32;;;;;;;3.67;1.88;;;19.60;99.90;;;;;;4589106;19;19974;-25
2023/07/26 15:06:04;;;;;;;2.22;1.30;;;19.60;99.90;;;;;;4588197;19;20014;-30
2023/07/26 15:07:36;;;;;;;3.33;1.30;;;19.60;99.90;;;;;;4589633;19;20011;-26
2023/07/26 15:09:08;;;;;;;2.05;1.00;;;19.60;99.90;;;;;;4590095;19;20466;-26
2023/07/26 15:10:39;;;;;;;2.15;1.05;;;19.60;99.90;;;;;;4587464;19;20007;-26
2023/07/26 15:12:10;;;;;;;;;;;19.60;99.90;;;;;;4588481;19;20470;-32
2023/07/26 15:13:42;;;;;;;1.38;0.82;;;19.60;99.90;;;;;;4587559;19;19978;-28
2023/07/26 15:15:15;;;;;;;1.55;1.05;;;19.60;99.90;;;;;;4588528;19;20344;-32
2023/07/26 15:16:47;;;;;;;2.70;1.20;;;19.60;99.90;;;;;;4588184;19;20014;-26
2023/07/26 15:18:18;;;;;;;2.75;1.00;;;19.60;99.90;;;;;;4589592;19;20040;-29
2023/07/26 15:19:50;;;;;;;1.38;0.95;;;19.60;99.90;;;;;;4589660;19;20037;-26
2023/07/26 15:21:21;;;;;;;1.75;1.15;;;19.70;99.90;;;;;;4589987;19;20017;-30
2023/07/26 15:23:08;;;;;;;2.17;1.05;;;19.60;99.90;;;;;;4588305;19;20011;-25
2023/07/26 15:24:39;;;;;;;2.05;1.13;;;19.60;99.90;;;;;;4588279;19;20051;-27
2023/07/26 15:26:12;;;;;;;2.88;1.23;;;19.60;99.90;;;;;;4591971;19;20011;-28
2023/07/26 15:27:44;;;;;;;;;;;19.50;99.90;;;;;;4594274;19;20006;-27
2023/07/26 15:29:15;;;;;;;2.33;1.38;;;19.50;99.90;;;;;;4592789;19;19911;-26
2023/07/26 15:30:47;;;;;;;3.80;1.55;;;19.50;99.90;;;;;;4593216;19;20010;-26
2023/07/26 15:32:18;;;;;;;2.83;1.20;;;19.40;99.90;;;;;;4594499;19;20470;-27
2023/07/26 15:33:51;;;;;;;3.75;1.85;;;19.40;99.90;;;;;;4591525;19;20040;-27
2023/07/26 15:35:22;;;;;;;2.30;1.40;;;19.40;99.90;;;;;;4592134;19;20010;-27
2023/07/26 15:36:56;;;;;;;2.03;1.10;;;19.40;99.90;;;;;;4591352;19;20021;-26
2023/07/26 15:38:27;;;;;;;3.13;1.20;;;19.40;99.90;;;;;;4591697;19;20017;-27
2023/07/26 15:39:58;;;;;;;;;;;19.40;99.90;;;;;;4594108;19;20359;-25
2023/07/26 15:41:29;;;;;;;3.65;1.58;;;19.40;99.90;;;;;;4593722;19;19971;-27
2023/07/26 15:43:01;;;;;;;;;;;19.40;99.90;;;;;;4594978;19;20015;-29
2023/07/26 15:44:32;;;;;;;3.05;1.30;;;19.30;99.90;;;;;;4594182;19;19923;-28
2023/07/26 15:46:04;;;;;;;3.95;1.63;;;19.30;99.90;;;;;;4594535;19;20008;-28
2023/07/26 15:47:35;;;;;;;3.97;1.42;;;19.30;99.90;;;;;;4593651;19;20467;-26
2023/07/26 15:49:07;;;;;;;3.28;2.00;;;19.30;99.90;;;;;;4592170;19;20358;-26
2023/07/26 15:50:39;;;;;;;2.17;1.52;;;19.30;99.90;;;;;;4593220;19;19999;-26
2023/07/26 15:52:10;;;;;;;3.33;1.40;;;19.30;99.90;;;;;;4593223;19;20007;-27
2023/07/26 15:53:44;;;;;;;3.55;1.33;;;19.30;99.90;;;;;;4593819;19;20035;-28
2023/07/26 15:55:18;;;;;;;3.67;1.63;;;19.20;99.90;;;;;;4592266;19;20383;-31
2023/07/26 15:56:50;;;;;;;2.45;1.42;;;19.30;99.90;;;;;;4592009;19;20475;-26
2023/07/26 15:58:26;;;;;;;;;;;19.20;99.90;;;;;;4594158;19;20483;-31
2023/07/26 15:59:59;;;;;;;2.85;1.30;;;19.30;99.90;;;;;;4593427;19;19941;-26
2023/07/26 16:01:30;;;;;;;2.75;1.40;;;19.30;99.90;;;;;;4593960;19;20010;-31
2023/07/26 16:03:04;;;;;;;3.50;1.75;;;19.30;99.90;;;;;;4593914;19;20002;-26
2023/07/26 16:04:36;;;;;;;2.92;1.75;;;19.30;99.90;;;;;;4593253;19;20017;-30
2023/07/26 16:06:10;;;;;;;2.85;1.95;;;19.30;99.90;;;;;;4593679;19;20339;-25
2023/07/26 16:07:42;;;;;;;2.20;1.38;;;19.30;99.90;;;;;;4593151;19;20023;-26
2023/07/26 16:09:13;;;;;;;2.90;1.60;;;19.30;99.90;;;;;;4594287;19;20000;-26
2023/07/26 16:10:46;;;;;;;2.70;1.50;;;19.30;99.90;;;;;;4593114;19;20002;-27
2023/07/26 16:12:17;;;;;;;2.15;1.30;;;19.40;99.90;;;;;;4593391;19;20014;-26
2023/07/26 17:44:44;;;;;;;4.70;1.92;;;18.70;99.90;;;;;;4589799;19;20007;-25
2023/07/26 17:46:16;;;;;;;3.67;2.33;;;18.70;99.90;;;;;;4590990;19;20023;-27
2023/07/26 17:47:47;;;;;;;3.95;2.28;;;18.70;99.90;;;;;;4591502;19;20014;-23
2023/07/26 17:49:20;;;;;;;3.75;2.08;;;18.70;99.90;;;;;;4590938;19;20468;-26
2023/07/26 17:50:53;;;;;;;4.28;2.50;;;18.70;99.90;;;;;;4590915;19;20023;-25
2023/07/26 17:52:49;;;;;;;3.42;2.20;;;18.70;99.90;;;;;;4587399;19;20476;-25
2023/07/26 17:54:22;;;;;;;3.95;2.55;;;18.60;99.90;;;;;;4588623;19;20025;-26
2023/07/26 17:56:02;;;;;;;3.22;2.40;;;18.60;99.90;;;;;;4588793;19;20073;-27
2023/07/26 17:57:37;;;;;;;4.30;3.15;;;18.60;99.90;;;;;;4589166;19;20006;-28
2023/07/26 17:59:11;;;;;;;3.70;2.47;;;18.60;99.90;;;;;;4588520;19;20349;-26
2023/07/26 18:00:43;;;;;;;6.53;3.17;;;18.60;99.90;;;;;;4588550;19;20014;-27
2023/07/26 18:02:15;;;;;;;3.95;2.83;;;18.50;99.90;;;;;;4589063;19;20387;-26
2023/07/26 18:03:46;;;;;;;4.07;2.47;;;18.50;99.90;;;;;;4588165;19;20074;-28
2023/07/26 18:05:19;;;;;;;4.38;2.70;;;18.40;99.90;;;;;;4588519;19;20377;-25
2023/07/26 18:06:51;;;;;;;3.67;2.42;;;18.40;99.90;;;;;;4588311;19;20027;-29
2023/07/26 18:08:23;;;;;;;5.50;2.88;;;18.30;99.90;;;;;;4588308;19;20011;-30
2023/07/26 18:09:59;;;;;;;4.25;2.97;;;18.20;99.90;;;;;;4589171;19;20027;-28
2023/07/26 18:11:37;;;;;;;5.28;2.80;;;18.00;99.90;;;;;;4588177;19;20070;-26
2023/07/26 18:13:08;;;;;;;5.20;3.15;;;17.90;99.90;;;;;;4588499;19;20017;-27
2023/07/26 18:14:40;;;;;;;5.75;3.90;;;17.80;99.90;;;;;;4588573;19;20326;-25
2023/07/26 18:16:14;;;;;;;4.25;2.80;;;17.80;99.90;;;;;;4588398;19;20022;-26
2023/07/26 18:17:48;;;;;;;4.43;2.47;;;17.70;99.90;;;;;;4588139;19;20438;-26
2023/07/26 18:19:24;;;;;;;4.30;2.75;;;17.70;99.90;;;;;;4587255;19;20415;-25
2023/07/26 18:21:03;;;;;;;4.70;2.80;;;17.60;99.90;;;;;;4588414;19;20006;-25
2023/07/26 18:22:44;;;;;;;5.25;3.50;;;17.60;99.90;;;;;;4588598;19;20006;-29
2023/07/26 18:24:20;;;;;;;4.38;2.70;;;17.60;99.90;;;;;;4588279;19;20018;-30
2023/07/26 18:25:52;;;;;;;5.00;2.67;;;17.50;99.90;;;;;;4588428;19;20024;-26
2023/07/26 18:27:25;;;;;;;5.03;3.42;;;17.60;99.90;;;;;;4588542;19;20027;-26
2023/07/26 18:28:57;;;;;;;4.10;3.22;;;17.50;99.90;;;;;;4588351;19;20121;-26
2023/07/26 18:30:29;;;;;;;3.88;2.78;;;17.50;99.90;;;;;;4589256;19;20021;-28
2023/07/26 18:32:03;;;;;;;3.38;2.22;;;17.60;99.90;;;;;;4590341;19;20014;-31
2023/07/26 18:33:38;;;;;;;4.95;3.35;;;17.60;99.90;;;;;;4589529;19;20018;-26
2023/07/26 18:35:14;;;;;;;4.82;3.35;;;17.60;99.90;;;;;;4590093;19;20383;-25
2023/07/26 18:36:45;;;;;;;4.75;3.25;;;17.50;99.90;;;;;;4588577;19;19999;-28
2023/07/26 18:38:17;;;;;;;4.78;2.92;;;17.50;99.90;;;;;;4588908;19;20406;-26
2023/07/26 18:39:50;;;;;;;4.70;3.20;;;17.50;99.90;;;;;;4589343;19;20006;-28
2023/07/26 18:41:21;;;;;;;4.30;3.00;;;17.40;99.90;;;;;;4590390;19;20025;-25
2023/07/26 18:42:54;;;;;;;5.00;3.53;;;17.40;99.90;;;;;;4590079;19;20021;-30
2023/07/26 18:44:25;;;;;;;6.53;4.20;;;17.40;99.90;;;;;;4589969;19;20011;-25
2023/07/26 18:46:10;;;;;;;6.18;5.00;;;17.40;99.90;;;;;;4587822;19;20423;-25
2023/07/26 18:47:45;;;;;;;6.78;4.65;;;17.40;99.90;;;;;;4588438;19;20018;-27
2023/07/26 18:49:25;;;;;;;7.13;4.80;;;17.30;99.90;;;;;;4587591;19;20477;-25
2023/07/26 18:50:56;;;;;;;6.80;3.58;;;17.30;99.90;;;;;;4587856;19;20074;-25
2023/07/26 18:52:27;;;;;;;6.43;4.10;;;17.30;99.90;;;;;;4587985;19;20011;-30
2023/07/26 18:54:00;;;;;;;5.72;4.10;;;17.30;99.90;;;;;;4588448;19;19998;-25
2023/07/26 18:55:33;;;;;;;8.43;5.03;;;17.30;99.90;;;;;;4588152;19;20017;-25
2023/07/26 18:57:06;;;;;;;6.32;4.93;;;17.20;99.90;;;;;;4586774;19;20483;-24
2023/07/26 18:58:42;;;;;;;6.25;4.15;;;17.20;99.90;;;;;;4587593;19;20015;-25
2023/07/26 19:00:13;;;;;;;7.15;4.13;;;17.20;99.90;;;;;;4588058;19;20006;-28
2023/07/26 19:01:47;;;;;;;5.55;4.28;;;17.20;99.90;;;;;;4592821;19;20113;-25
2023/07/26 19:03:18;;;;;;;5.35;3.50;;;17.20;99.90;;;;;;4592212;19;20014;-27
2023/07/26 19:04:50;;;;;;;5.03;3.53;;;17.10;99.90;;;;;;4591475;19;20015;-25
2023/07/26 19:06:44;;;;;;;5.13;4.05;;;17.10;99.90;;;;;;4592273;19;20585;-29
2023/07/26 19:08:15;;;;;;;5.32;3.50;;;17.10;99.90;;;;;;4593033;19;20014;-26
2023/07/26 19:09:48;;;;;;;4.60;3.80;;;17.10;99.90;;;;;;4592225;19;20014;-30
2023/07/26 19:11:19;;;;;;;;;;;17.10;99.90;;;;;;4593195;19;20031;-26
2023/07/26 19:12:51;;;;;;;6.32;3.60;;;17.00;99.90;;;;;;4592247;19;19978;-29
2023/07/26 19:14:22;;;;;;;5.05;3.58;;;17.00;99.90;;;;;;4592176;19;20487;-28
2023/07/26 19:15:55;;;;;;;5.38;3.65;;;17.00;99.90;;;;;;4592248;19;20356;-29
2023/07/26 19:17:26;;;;;;;7.18;4.72;;;17.00;99.90;;;;;;4590334;19;20021;-26
2023/07/26 19:18:58;;;;;;;5.15;4.00;;;17.00;99.90;;;;;;4592658;19;20006;-26
2023/07/26 19:20:30;;;;;;;5.25;3.90;;;17.00;99.90;;;;;;4592091;19;20026;-26
2023/07/26 19:22:02;;;;;;;4.45;3.53;;;17.00;99.90;;;;;;4592416;19;20018;-27
2023/07/26 19:23:35;;;;;;;5.72;3.85;;;17.00;99.90;;;;;;4592973;19;20014;-25
2023/07/26 19:25:07;;;;;;;4.93;3.47;;;17.00;99.90;;;;;;4593485;19;20459;-28
2023/07/26 19:26:38;;;;;;;6.43;4.57;;;17.00;99.90;;;;;;4593513;19;20471;-32
2023/07/26 19:28:09;;;;;;;5.90;4.35;;;17.00;99.90;;;;;;4591771;19;20486;-28
2023/07/26 19:29:41;;;;;;;5.78;4.20;;;17.00;99.90;;;;;;4593847;19;20511;-25
2023/07/26 19:31:14;;;;;;;5.28;3.97;;;16.90;99.90;;;;;;4591532;19;20011;-27
2023/07/26 19:32:45;;;;;;;5.90;4.53;;;16.90;99.90;;;;;;4593311;19;20033;-26
2023/07/26 19:34:17;;;;;;;5.28;4.00;;;16.90;99.90;;;;;;4593643;19;20014;-25
2023/07/26 19:35:58;;;;;;;5.00;3.50;;;16.90;99.90;;;;;;4592424;19;20066;-24
2023/07/26 19:37:30;;;;;;;6.88;4.85;;;16.90;99.90;;;;;;4591960;19;20518;-28
2023/07/26 19:39:02;;;;;;;5.90;4.90;;;16.90;99.90;;;;;;4591407;19;20126;-25
2023/07/26 19:40:36;;;;;;;7.63;5.97;;;17.00;99.90;;;;;;4593257;19;20019;-25
2023/07/26 19:42:08;;;;;;;5.22;4.45;;;16.90;99.90;;;;;;4594013;19;20021;-32
2023/07/26 19:43:42;;;;;;;6.90;5.05;;;16.90;99.90;;;;;;4594641;19;20335;-26
2023/07/26 19:45:13;;;;;;;;;;;16.90;99.90;;;;;;4592383;19;20528;-26
2023/07/26 19:46:46;;;;;;;8.68;5.53;;;16.90;99.90;;;;;;4593192;19;19974;-25
2023/07/26 19:48:18;;;;;;;;;;;16.90;99.90;;;;;;4595050;19;20061;-30
2023/07/26 19:49:53;;;;;;;9.15;5.68;;;16.90;99.90;;;;;;4592758;19;20388;-24
2023/07/26 19:51:26;;;;;;;7.70;5.35;;;16.90;99.90;;;;;;4592429;19;20216;-28
2023/07/26 19:52:58;;;;;;;8.57;6.60;;;16.90;99.90;;;;;;4593343;19;20021;-25
2023/07/26 19:54:30;;;;;;;7.28;5.80;;;16.90;99.90;;;;;;4593361;19;20030;-27
2023/07/26 19:56:04;;;;;;;6.70;4.72;;;16.90;99.90;;;;;;4592325;19;20010;-31
2023/07/26 19:57:36;;;;;;;6.20;4.90;;;16.90;99.90;;;;;;4592092;19;20538;-28
2023/07/26 19:59:07;;;;;;;;;;;16.90;99.90;;;;;;4594374;19;20359;-25
2023/07/26 20:00:39;;;;;;;6.72;5.00;;;16.90;99.90;;;;;;4594923;19;19949;-25
2023/07/26 20:02:11;;;;;;;8.02;5.20;;;16.90;99.90;;;;;;4593475;19;19995;-26
2023/07/26 20:03:42;;;;;;;5.85;3.80;;;16.90;99.90;;;;;;4593421;19;20045;-26
2023/07/26 20:05:14;;;;;;;6.22;4.63;;;16.90;99.90;;;;;;4593403;19;20010;-27
2023/07/26 20:06:51;;;;;;;5.85;4.00;;;16.90;99.90;;;;;;4591658;19;20007;-24
2023/07/26 20:08:24;;;;;;;7.15;4.43;;;16.90;99.90;;;;;;4593465;19;20010;-24
2023/07/26 20:09:59;;;;;;;;;;;16.90;99.90;;;;;;4593099;19;20025;-27
2023/07/26 20:11:32;;;;;;;6.15;4.10;;;16.90;99.90;;;;;;4592365;19;19927;-29
2023/07/26 20:13:03;;;;;;;;;;;16.90;99.90;;;;;;4592125;19;19998;-25
2023/07/26 20:14:36;;;;;;;5.53;3.88;;;16.80;99.90;;;;;;4592941;19;20224;-27
2023/07/26 20:16:08;;;;;;;7.25;5.20;;;16.90;99.90;;;;;;4594435;19;20046;-24
2023/07/26 20:17:39;;;;;;;;;;;16.80;99.90;;;;;;4593712;19;20018;-25
2023/07/26 20:19:11;;;;;;;4.20;3.40;;;16.80;99.90;;;;;;4593347;19;20275;-26
2023/07/26 20:20:43;;;;;;;5.82;4.15;;;16.80;99.90;;;;;;4593217;19;20015;-28
2023/07/26 20:22:17;;;;;;;5.18;3.65;;;16.80;99.90;;;;;;4591817;19;20031;-25
2023/07/26 20:23:50;;;;;;;5.65;3.65;;;16.80;99.90;;;;;;4592861;19;20033;-26
2023/07/26 20:25:23;;;;;;;4.10;3.33;;;16.80;99.90;;;;;;4593336;19;20002;-29
2023/07/26 20:27:08;;;;;;;4.63;2.85;;;16.80;99.90;;;;;;4591993;19;20024;-24
2023/07/26 20:28:47;;;;;;;4.47;3.17;;;16.80;99.90;;;;;;4591369;19;20364;-25
2023/07/26 20:30:25;;;;;;;5.20;3.38;;;16.80;99.90;;;;;;4592383;19;20022;-28
2023/07/26 20:32:00;;;;;;;4.90;3.10;;;16.80;99.90;;;;;;4591273;19;20551;-26
2023/07/26 20:33:33;;;;;;;5.13;2.80;;;16.80;99.90;;;;;;4592549;19;20021;-25
2023/07/26 20:35:05;;;;;;;4.53;2.80;;;16.80;99.90;;;;;;4592674;19;20373;-24
2023/07/26 20:36:36;;;;;;;4.10;2.50;;;16.80;99.90;;;;;;4591180;19;20007;-31
2023/07/26 20:38:08;;;;;;;5.95;3.10;;;16.80;99.90;;;;;;4591205;19;20014;-25
2023/07/26 20:39:43;;;;;;;3.95;2.75;;;16.80;99.90;;;;;;4593040;19;20003;-26
2023/07/26 20:41:14;;;;;;;3.85;2.78;;;16.80;99.90;;;;;;4591500;19;20088;-29
2023/07/26 20:42:48;;;;;;;3.72;2.58;;;16.80;99.90;;;;;;4592530;19;20355;-27
2023/07/26 20:44:21;;;;;;;3.30;2.30;;;16.80;99.90;;;;;;4593128;19;20002;-26
2023/07/26 20:45:52;;;;;;;;;;;16.80;99.90;;;;;;4591467;19;20050;-25
2023/07/26 20:47:24;;;;;;;3.40;2.22;;;16.80;99.90;;;;;;4592932;19;19914;-26
2023/07/26 20:48:56;;;;;;;3.28;2.63;;;16.80;99.90;;;;;;4594707;19;20455;-27
2023/07/26 20:50:28;;;;;;;3.38;2.40;;;16.80;99.90;;;;;;4592308;19;20014;-28
2023/07/26 20:52:00;;;;;;;4.13;3.17;;;16.80;99.90;;;;;;4592306;19;20006;-26
2023/07/26 20:53:33;;;;;;;;;;;16.80;99.90;;;;;;4593460;19;20089;-32
2023/07/26 20:55:07;;;;;;;3.03;2.17;;;16.70;99.90;;;;;;4592419;19;19919;-25
2023/07/26 20:56:38;;;;;;;;;;;16.70;99.90;;;;;;4591665;19;19999;-25
2023/07/26 20:58:10;;;;;;;4.32;2.50;;;16.60;99.90;;;;;;4591114;19;19974;-25
2023/07/26 20:59:42;;;;;;;3.35;2.47;;;16.60;99.90;;;;;;4591746;19;20046;-26
2023/07/26 21:01:14;;;;;;;3.55;2.10;;;16.50;99.90;;;;;;4592847;19;20032;-25
2023/07/26 21:02:46;;;;;;;3.20;2.30;;;16.50;99.90;;;;;;4592246;19;20010;-30
2023/07/26 21:04:27;;;;;;;3.97;2.03;;;16.50;99.90;;;;;;4591677;19;20037;-25
2023/07/26 21:11:41;;;;;;;3.05;2.28;;;16.40;99.90;;;;;;4593691;19;20535;-26
2023/07/26 21:13:13;;;;;;;3.08;2.20;;;16.40;99.90;;;;;;4592092;19;20021;-26
2023/07/26 21:14:45;;;;;;;3.95;2.30;;;16.30;99.90;;;;;;4590581;19;20016;-25
2023/07/26 21:16:16;;;;;;;3.80;2.15;;;16.30;99.90;;;;;;4591561;19;20014;-30
2023/07/26 21:17:48;;;;;;;3.20;2.38;;;16.30;99.90;;;;;;4591056;19;20002;-29
2023/07/26 21:19:19;;;;;;;3.40;2.00;;;16.30;99.90;;;;;;4591522;19;20045;-26
2023/07/26 21:20:51;;;;;;;5.07;2.22;;;16.30;99.90;;;;;;4591902;19;20097;-25
2023/07/26 21:22:23;;;;;;;2.25;1.50;;;16.30;99.90;;;;;;4590875;19;20015;-31
2023/07/26 21:23:55;;;;;;;2.70;2.00;;;16.30;99.90;;;;;;4590340;19;20019;-28
2023/07/26 21:25:26;;;;;;;;;;;16.30;99.90;;;;;;4591293;19;20014;-25
2023/07/26 21:27:01;;;;;;;3.10;2.03;;;16.30;99.90;;;;;;4591143;19;19928;-25
2023/07/26 21:28:32;;;;;;;3.00;2.00;;;16.30;99.90;;;;;;4591722;19;20051;-31
2023/07/26 21:30:06;;;;;;;3.65;2.22;;;16.30;99.90;;;;;;4591825;19;20019;-29
2023/07/26 21:31:38;;;;;;;3.05;2.10;;;16.30;99.90;;;;;;4591432;19;20015;-28
2023/07/26 21:33:11;;;;;;;2.72;2.00;;;16.30;99.90;;;;;;4591812;19;20359;-27
2023/07/26 21:34:44;;;;;;;4.18;2.58;;;16.30;99.90;;;;;;4591597;19;20015;-28
2023/07/26 21:36:16;;;;;;;2.92;2.05;;;16.20;99.90;;;;;;4590651;19;20455;-29
2023/07/26 21:37:48;;;;;;;3.42;2.13;;;16.20;99.90;;;;;;4590330;19;20014;-24
2023/07/26 21:39:37;;;;;;;3.00;2.00;;;16.20;99.90;;;;;;4590438;19;20022;-29
2023/07/26 21:41:10;;;;;;;3.33;2.40;;;16.20;99.90;;;;;;4591021;19;20358;-27
2023/07/26 21:42:41;;;;;;;4.55;2.17;;;16.20;99.90;;;;;;4590472;19;20006;-27
2023/07/26 21:44:12;;;;;;;4.18;2.58;;;16.20;99.90;;;;;;4590794;19;20015;-28
2023/07/26 21:45:44;;;;;;;4.13;2.50;;;16.20;99.90;;;;;;4588960;19;20490;-28
2023/07/26 21:47:17;;;;;;;3.45;1.88;;;16.20;99.90;;;;;;4590323;19;20033;-24
2023/07/26 21:48:48;;;;;;;3.60;2.35;;;16.20;99.90;;;;;;4590744;19;20011;-26
2023/07/26 21:50:20;;;;;;;;;;;16.30;99.90;;;;;;4591459;19;20472;-27
2023/07/26 21:51:51;;;;;;;6.43;2.70;;;16.30;99.90;;;;;;4591066;19;19921;-29
2023/07/26 21:53:23;;;;;;;4.40;2.88;;;16.30;99.90;;;;;;4591549;19;20451;-29
2023/07/26 21:54:55;;;;;;;;;;;16.30;99.90;;;;;;4592629;19;20006;-29
2023/07/26 21:56:26;;;;;;;4.68;2.60;;;16.30;99.90;;;;;;4590535;19;19945;-25
2023/07/26 21:57:58;;;;;;;3.17;2.25;;;16.30;99.90;;;;;;4590082;19;20018;-27
2023/07/26 21:59:30;;;;;;;4.05;2.38;;;16.30;99.90;;;;;;4590875;19;20010;-29
2023/07/26 22:01:13;;;;;;;3.97;3.10;;;16.30;99.90;;;;;;4591179;19;20340;-26
2023/07/26 22:02:54;;;;;;;3.17;2.00;;;16.20;99.90;;;;;;4589398;19;20502;-24
2023/07/26 22:04:59;;;;;;;3.92;2.70;;;16.30;99.90;;;;;;4590529;19;20395;-27
2023/07/26 22:06:30;;;;;;;4.25;2.92;;;16.20;99.90;;;;;;4589901;19;20018;-25
2023/07/26 22:08:03;;;;;;;4.55;2.88;;;16.20;99.90;;;;;;4590203;19;20006;-25
2023/07/26 22:09:37;;;;;;;3.63;2.45;;;16.30;99.90;;;;;;4590909;19;20451;-25
2023/07/26 22:11:09;;;;;;;4.35;2.88;;;16.30;99.90;;;;;;4590736;19;20050;-25
2023/07/26 22:12:41;;;;;;;4.55;2.78;;;16.20;99.90;;;;;;4589514;19;20018;-25
2023/07/26 22:14:14;;;;;;;5.40;3.38;;;16.20;99.90;;;;;;4590133;19;20019;-24
2023/07/26 22:15:47;;;;;;;4.10;2.97;;;16.30;99.90;;;;;;4591017;19;20006;-25
2023/07/26 22:17:19;;;;;;;5.57;3.20;;;16.20;99.90;;;;;;4589738;19;20014;-26
2023/07/26 22:18:51;;;;;;;3.95;2.90;;;16.30;99.90;;;;;;4590846;19;20343;-25
2023/07/26 22:20:24;;;;;;;3.83;2.90;;;16.20;99.90;;;;;;4589389;19;20026;-25
2023/07/26 22:21:57;;;;;;;4.35;3.00;;;16.20;99.90;;;;;;4589516;19;20360;-25
2023/07/26 22:23:30;;;;;;;4.75;2.90;;;16.20;99.90;;;;;;4589899;19;20006;-25
2023/07/26 22:25:03;;;;;;;4.18;3.17;;;16.30;99.90;;;;;;4589248;19;20454;-25
2023/07/26 22:26:34;;;;;;;4.03;3.30;;;16.30;99.90;;;;;;4589775;19;20003;-24
2023/07/26 22:28:05;;;;;;;6.45;4.93;;;16.20;99.90;;;;;;4590725;19;20007;-26
2023/07/26 22:29:38;;;;;;;7.07;4.85;;;16.20;99.90;;;;;;4590426;19;20019;-25
2023/07/26 22:31:10;;;;;;;5.22;3.72;;;16.20;99.90;;;;;;4590984;19;20010;-25
2023/07/26 22:32:42;;;;;;;3.80;2.95;;;16.20;99.90;;;;;;4590831;19;20014;-25
2023/07/26 22:34:13;;;;;;;4.07;3.03;;;16.20;99.90;;;;;;4590652;19;20011;-26
2023/07/26 22:35:45;;;;;;;4.50;3.50;;;16.20;99.90;;;;;;4588489;19;20019;-25
2023/07/26 22:37:18;;;;;;;4.93;3.58;;;16.20;99.90;;;;;;4588349;19;20014;-25
2023/07/26 22:38:51;;;;;;;3.50;2.97;;;16.20;99.90;;;;;;4589582;19;20476;-24
2023/07/26 22:40:25;;;;;;;4.35;2.90;;;16.10;99.90;;;;;;4589733;19;20062;-25
2023/07/26 22:41:57;;;;;;;4.45;3.38;;;16.10;99.90;;;;;;4588972;19;20463;-24
2023/07/26 22:43:29;;;;;;;4.53;2.97;;;16.10;99.90;;;;;;4589835;19;20035;-26
2023/07/26 22:45:02;;;;;;;3.88;2.85;;;16.10;99.90;;;;;;4588281;19;20014;-25
2023/07/26 22:46:33;;;;;;;3.47;2.40;;;16.10;99.90;;;;;;4588930;19;20375;-25
2023/07/26 22:48:05;;;;;;;3.80;2.88;;;16.00;99.90;;;;;;4589668;19;20022;-25
2023/07/26 22:49:36;;;;;;;4.35;3.13;;;16.00;99.90;;;;;;4590217;19;20026;-24
2023/07/26 22:51:09;;;;;;;5.05;2.75;;;16.00;99.90;;;;;;4590290;19;20489;-25
2023/07/26 22:52:42;;;;;;;4.57;3.03;;;16.00;99.90;;;;;;4588929;19;20098;-25
2023/07/26 22:54:13;;;;;;;4.43;3.15;;;16.00;99.90;;;;;;4589973;19;20015;-25
2023/07/26 22:55:45;;;;;;;4.05;2.55;;;16.00;99.90;;;;;;4590187;19;20023;-24
2023/07/26 22:57:18;;;;;;;3.40;2.42;;;16.00;99.90;;;;;;4589558;19;20033;-24
2023/07/26 22:58:50;;;;;;;4.78;2.88;;;16.00;99.90;;;;;;4589960;19;20345;-25
2023/07/26 23:00:21;;;;;;;8.38;5.43;;;16.00;99.90;;;;;;4589999;19;20038;-25
2023/07/26 23:01:54;;;;;;;6.88;4.50;;;16.00;99.90;;;;;;4590398;19;20018;-25
2023/07/26 23:03:27;;;;;;;5.28;3.35;;;16.00;99.90;;;;;;4590090;19;20023;-26
2023/07/26 23:05:00;;;;;;;4.85;2.83;;;16.00;99.90;;;;;;4588833;19;20077;-25
2023/07/26 23:06:33;;;;;;;4.47;3.20;;;15.90;99.90;;;;;;4588837;19;20014;-26
2023/07/26 23:08:04;;;;;;;6.03;4.05;;;16.00;99.90;;;;;;4591330;19;20392;-25
2023/07/26 23:09:37;;;;;;;4.97;3.88;;;15.90;99.90;;;;;;4588440;19;20038;-25
2023/07/26 23:11:09;;;;;;;6.30;4.07;;;15.90;99.90;;;;;;4588543;19;20431;-25
2023/07/26 23:12:41;;;;;;;4.65;3.30;;;16.00;99.90;;;;;;4588721;19;20014;-26
2023/07/26 23:14:12;;;;;;;6.30;4.53;;;15.90;99.90;;;;;;4589869;19;20014;-26
2023/07/26 23:15:46;;;;;;;7.47;5.18;;;15.90;99.90;;;;;;4589778;19;20350;-25
2023/07/26 23:17:18;;;;;;;4.30;3.08;;;15.90;99.90;;;;;;4588662;19;20011;-25
2023/07/26 23:18:51;;;;;;;5.53;3.65;;;15.90;99.90;;;;;;4588918;19;20014;-25
2023/07/26 23:20:25;;;;;;;5.03;3.60;;;15.90;99.90;;;;;;4589842;19;20003;-25
2023/07/26 23:21:56;;;;;;;4.57;3.75;;;15.90;99.90;;;;;;4589413;19;20505;-25
2023/07/26 23:23:29;;;;;;;4.57;3.30;;;15.90;99.90;;;;;;4589627;19;20455;-25
2023/07/26 23:25:04;;;;;;;4.85;2.72;;;15.80;99.90;;;;;;4589650;19;19999;-25
2023/07/26 23:26:36;;;;;;;12.05;7.40;;;15.80;99.90;;;;;;4589843;19;20478;-26
2023/07/26 23:28:09;;;;;;;8.20;5.28;;;15.80;99.90;;;;;;4589478;19;20074;-24
2023/07/26 23:29:41;;;;;;;6.10;4.38;;;15.80;99.90;;;;;;4589928;19;20014;-25
2023/07/26 23:31:12;;;;;;;5.82;3.85;;;15.80;99.90;;;;;;4589973;19;20015;-25
2023/07/26 23:32:44;;;;;;;8.18;5.45;;;15.80;99.90;;;;;;4590164;19;20006;-26
2023/07/26 23:34:16;;;;;;;6.07;4.18;;;15.80;99.90;;;;;;4589449;19;20014;-24
2023/07/26 23:35:50;;;;;;;7.07;5.88;;;15.80;99.90;;;;;;4588458;19;20022;-26
2023/07/26 23:37:22;;;;;;;6.90;5.43;;;15.70;99.90;;;;;;4588195;19;20086;-25
2023/07/26 23:38:53;;;;;;;7.05;5.05;;;15.70;99.90;;;;;;4589320;19;20006;-25
2023/07/26 23:40:24;;;;;;;5.43;4.28;;;15.70;99.90;;;;;;4588100;19;20333;-25
2023/07/26 23:41:57;;;;;;;5.65;3.90;;;15.70;99.90;;;;;;4588750;19;20031;-24
2023/07/26 23:43:29;;;;;;;6.32;3.97;;;15.70;99.90;;;;;;4589887;19;20087;-25
2023/07/26 23:45:00;;;;;;;6.85;4.45;;;15.70;99.90;;;;;;4588624;19;20018;-25
2023/07/26 23:46:32;;;;;;;8.07;4.75;;;15.70;99.90;;;;;;4589985;19;20015;-26
2023/07/26 23:48:04;;;;;;;9.70;5.50;;;15.70;99.90;;;;;;4593146;19;20015;-25
2023/07/26 23:49:36;;;;;;;8.32;5.43;;;15.70;99.90;;;;;;4593746;19;20017;-25
2023/07/26 23:51:07;;;;;;;6.95;4.55;;;15.60;99.90;;;;;;4593465;19;20325;-25
2023/07/26 23:52:39;;;;;;;6.70;4.55;;;15.60;99.90;;;;;;4592523;19;20018;-26
2023/07/26 23:54:10;;;;;;;7.40;5.07;;;15.60;99.90;;;;;;4593859;19;20329;-24
2023/07/26 23:55:44;;;;;;;9.45;5.18;;;15.60;99.90;;;;;;4593869;19;20486;-26
2023/07/26 23:57:16;;;;;;;8.20;5.00;;;15.60;99.90;;;;;;4592351;19;20037;-26
2023/07/26 23:58:48;;;;;;;7.88;4.57;;;15.60;99.90;;;;;;4592502;19;20010;-24
